sensor_id;sensor_type;location;lat;lon;timestamp;pressure;altitude;pressure_sealevel;temperature;humidity
55687;BME280;41911;52.362;4.978;2023-02-04T00:01:26;103290.88;;;6.08;52.63
55687;BME280;41911;52.362;4.978;2023-02-04T00:01:57;103293.97;;;6.22;52.37
55687;BME280;41911;52.362;4.978;2023-02-04T00:02:28;103295.08;;;6.15;52.51
55687;BME280;41911;52.362;4.978;2023-02-04T00:02:59;103291.98;;;6.45;52.03
55687;BME280;41911;52.362;4.978;2023-02-04T00:03:30;103293.56;;;6.41;52.10
55687;BME280;41911;52.362;4.978;2023-02-04T00:04:01;103294.69;;;6.77;51.58
55687;BME280;41911;52.362;4.978;2023-02-04T00:04:32;103293.73;;;6.17;52.49
55687;BME280;41911;52.362;4.978;2023-02-04T00:05:04;103294.40;;;6.17;52.53
55687;BME280;41911;52.362;4.978;2023-02-04T00:05:35;103295.55;;;6.01;52.83
55687;BME280;41911;52.362;4.978;2023-02-04T00:06:06;103294.93;;;6.06;52.88
55687;BME280;41911;52.362;4.978;2023-02-04T00:06:37;103296.12;;;6.14;52.63
55687;BME280;41911;52.362;4.978;2023-02-04T00:07:08;103295.34;;;6.24;52.47
55687;BME280;41911;52.362;4.978;2023-02-04T00:07:39;103298.53;;;6.38;52.24
55687;BME280;41911;52.362;4.978;2023-02-04T00:08:10;103298.58;;;6.50;52.29
55687;BME280;41911;52.362;4.978;2023-02-04T00:08:41;103299.62;;;6.44;51.91
55687;BME280;41911;52.362;4.978;2023-02-04T00:09:12;103295.85;;;6.90;51.64
55687;BME280;41911;52.362;4.978;2023-02-04T00:09:44;103299.72;;;6.25;52.16
55687;BME280;41911;52.362;4.978;2023-02-04T00:10:15;103299.40;;;6.24;52.32
55687;BME280;41911;52.362;4.978;2023-02-04T00:10:46;103299.53;;;6.11;52.96
55687;BME280;41911;52.362;4.978;2023-02-04T00:11:17;103299.17;;;6.08;52.75
55687;BME280;41911;52.362;4.978;2023-02-04T00:11:48;103303.61;;;6.51;52.42
55687;BME280;41911;52.362;4.978;2023-02-04T00:12:19;103302.31;;;6.50;52.48
55687;BME280;41911;52.362;4.978;2023-02-04T00:12:50;103300.94;;;6.67;52.28
55687;BME280;41911;52.362;4.978;2023-02-04T00:13:21;103304.14;;;6.40;52.45
55687;BME280;41911;52.362;4.978;2023-02-04T00:13:52;103300.72;;;6.36;52.74
55687;BME280;41911;52.362;4.978;2023-02-04T00:14:23;103303.81;;;6.10;53.29
55687;BME280;41911;52.362;4.978;2023-02-04T00:14:54;103303.09;;;5.99;53.57
55687;BME280;41911;52.362;4.978;2023-02-04T00:15:25;103302.96;;;6.49;52.94
55687;BME280;41911;52.362;4.978;2023-02-04T00:15:56;103304.38;;;6.40;52.94
55687;BME280;41911;52.362;4.978;2023-02-04T00:16:27;103308.19;;;6.28;53.12
55687;BME280;41911;52.362;4.978;2023-02-04T00:16:58;103305.67;;;6.07;53.07
55687;BME280;41911;52.362;4.978;2023-02-04T00:17:31;103302.25;;;6.65;52.55
55687;BME280;41911;52.362;4.978;2023-02-04T00:18:04;103303.82;;;7.04;52.11
55687;BME280;41911;52.362;4.978;2023-02-04T00:18:35;103306.49;;;6.32;53.07
55687;BME280;41911;52.362;4.978;2023-02-04T00:19:06;103304.52;;;6.49;53.00
55687;BME280;41911;52.362;4.978;2023-02-04T00:19:36;103303.43;;;6.57;52.78
55687;BME280;41911;52.362;4.978;2023-02-04T00:20:08;103304.29;;;6.50;53.00
55687;BME280;41911;52.362;4.978;2023-02-04T00:20:39;103304.54;;;6.97;52.33
55687;BME280;41911;52.362;4.978;2023-02-04T00:21:12;103303.83;;;6.46;52.51
55687;BME280;41911;52.362;4.978;2023-02-04T00:21:43;103304.90;;;6.58;52.81
55687;BME280;41911;52.362;4.978;2023-02-04T00:22:14;103309.80;;;6.09;53.15
55687;BME280;41911;52.362;4.978;2023-02-04T00:22:45;103308.50;;;6.49;53.15
55687;BME280;41911;52.362;4.978;2023-02-04T00:23:16;103305.71;;;6.45;52.71
55687;BME280;41911;52.362;4.978;2023-02-04T00:23:47;103309.43;;;6.99;52.36
55687;BME280;41911;52.362;4.978;2023-02-04T00:24:18;103310.20;;;7.00;52.08
55687;BME280;41911;52.362;4.978;2023-02-04T00:24:49;103309.69;;;6.97;52.31
55687;BME280;41911;52.362;4.978;2023-02-04T00:25:20;103308.14;;;7.02;52.19
55687;BME280;41911;52.362;4.978;2023-02-04T00:25:51;103312.91;;;6.38;52.37
55687;BME280;41911;52.362;4.978;2023-02-04T00:26:22;103310.03;;;6.41;52.80
55687;BME280;41911;52.362;4.978;2023-02-04T00:26:53;103312.22;;;6.29;53.13
55687;BME280;41911;52.362;4.978;2023-02-04T00:27:24;103311.22;;;6.20;53.06
55687;BME280;41911;52.362;4.978;2023-02-04T00:27:55;103315.52;;;6.53;53.26
55687;BME280;41911;52.362;4.978;2023-02-04T00:28:26;103310.21;;;6.52;52.88
55687;BME280;41911;52.362;4.978;2023-02-04T00:28:56;103317.98;;;6.17;53.41
55687;BME280;41911;52.362;4.978;2023-02-04T00:29:28;103314.36;;;6.16;53.47
55687;BME280;41911;52.362;4.978;2023-02-04T00:29:59;103315.72;;;6.50;53.39
55687;BME280;41911;52.362;4.978;2023-02-04T00:30:30;103318.98;;;5.39;55.08
55687;BME280;41911;52.362;4.978;2023-02-04T00:31:00;103315.38;;;5.96;54.50
55687;BME280;41911;52.362;4.978;2023-02-04T00:31:32;103312.40;;;6.62;53.82
55687;BME280;41911;52.362;4.978;2023-02-04T00:32:03;103315.31;;;6.31;53.35
55687;BME280;41911;52.362;4.978;2023-02-04T00:32:34;103315.40;;;6.68;53.19
55687;BME280;41911;52.362;4.978;2023-02-04T00:33:05;103316.24;;;6.74;53.02
55687;BME280;41911;52.362;4.978;2023-02-04T00:33:37;103314.70;;;6.76;52.92
55687;BME280;41911;52.362;4.978;2023-02-04T00:34:08;103318.40;;;6.56;53.17
55687;BME280;41911;52.362;4.978;2023-02-04T00:34:39;103317.01;;;6.08;53.54
55687;BME280;41911;52.362;4.978;2023-02-04T00:35:09;103319.44;;;6.46;53.47
55687;BME280;41911;52.362;4.978;2023-02-04T00:35:40;103318.33;;;6.52;53.25
55687;BME280;41911;52.362;4.978;2023-02-04T00:36:11;103318.92;;;6.62;53.02
55687;BME280;41911;52.362;4.978;2023-02-04T00:36:42;103318.64;;;6.79;52.86
55687;BME280;41911;52.362;4.978;2023-02-04T00:37:14;103321.70;;;6.62;53.07
55687;BME280;41911;52.362;4.978;2023-02-04T00:37:45;103322.01;;;6.91;52.62
55687;BME280;41911;52.362;4.978;2023-02-04T00:38:16;103319.03;;;7.08;52.30
55687;BME280;41911;52.362;4.978;2023-02-04T00:38:48;103321.74;;;6.68;52.94
55687;BME280;41911;52.362;4.978;2023-02-04T00:39:19;103324.52;;;6.56;53.21
55687;BME280;41911;52.362;4.978;2023-02-04T00:39:50;103326.13;;;6.76;53.10
55687;BME280;41911;52.362;4.978;2023-02-04T00:40:22;103325.27;;;7.07;52.48
55687;BME280;41911;52.362;4.978;2023-02-04T00:40:53;103325.97;;;6.91;52.50
55687;BME280;41911;52.362;4.978;2023-02-04T00:41:24;103325.84;;;6.90;52.22
55687;BME280;41911;52.362;4.978;2023-02-04T00:41:55;103325.37;;;6.52;52.26
55687;BME280;41911;52.362;4.978;2023-02-04T00:42:26;103326.75;;;7.14;52.15
55687;BME280;41911;52.362;4.978;2023-02-04T00:42:57;103327.46;;;7.13;52.09
55687;BME280;41911;52.362;4.978;2023-02-04T00:43:28;103328.00;;;6.94;52.22
55687;BME280;41911;52.362;4.978;2023-02-04T00:44:00;103329.62;;;7.06;52.16
55687;BME280;41911;52.362;4.978;2023-02-04T00:44:31;103330.52;;;7.02;52.25
55687;BME280;41911;52.362;4.978;2023-02-04T00:45:03;103331.25;;;7.36;52.02
55687;BME280;41911;52.362;4.978;2023-02-04T00:45:34;103334.08;;;7.22;51.61
55687;BME280;41911;52.362;4.978;2023-02-04T00:46:05;103334.76;;;6.76;52.64
55687;BME280;41911;52.362;4.978;2023-02-04T00:46:36;103334.06;;;6.57;52.60
55687;BME280;41911;52.362;4.978;2023-02-04T00:47:07;103332.62;;;6.91;52.67
55687;BME280;41911;52.362;4.978;2023-02-04T00:47:38;103336.25;;;6.33;52.84
55687;BME280;41911;52.362;4.978;2023-02-04T00:48:09;103335.05;;;6.68;52.53
55687;BME280;41911;52.362;4.978;2023-02-04T00:48:40;103333.89;;;6.73;52.39
55687;BME280;41911;52.362;4.978;2023-02-04T00:49:11;103335.04;;;6.45;52.40
55687;BME280;41911;52.362;4.978;2023-02-04T00:49:42;103336.54;;;6.65;52.67
55687;BME280;41911;52.362;4.978;2023-02-04T00:50:13;103335.15;;;5.87;53.73
55687;BME280;41911;52.362;4.978;2023-02-04T00:50:44;103334.69;;;6.25;53.10
55687;BME280;41911;52.362;4.978;2023-02-04T00:51:15;103335.27;;;6.70;52.88
55687;BME280;41911;52.362;4.978;2023-02-04T00:51:46;103332.50;;;6.67;52.74
55687;BME280;41911;52.362;4.978;2023-02-04T00:52:17;103334.24;;;7.06;52.67
55687;BME280;41911;52.362;4.978;2023-02-04T00:52:48;103334.88;;;6.37;52.98
55687;BME280;41911;52.362;4.978;2023-02-04T00:53:19;103331.41;;;6.59;52.53
55687;BME280;41911;52.362;4.978;2023-02-04T00:53:50;103331.60;;;6.94;52.45
55687;BME280;41911;52.362;4.978;2023-02-04T00:54:21;103335.39;;;6.79;52.52
55687;BME280;41911;52.362;4.978;2023-02-04T00:54:52;103334.49;;;6.36;53.34
55687;BME280;41911;52.362;4.978;2023-02-04T00:55:23;103336.56;;;5.88;53.73
55687;BME280;41911;52.362;4.978;2023-02-04T00:55:54;103338.05;;;6.10;53.44
55687;BME280;41911;52.362;4.978;2023-02-04T00:56:25;103337.72;;;6.50;53.16
55687;BME280;41911;52.362;4.978;2023-02-04T00:56:56;103337.98;;;6.67;53.53
55687;BME280;41911;52.362;4.978;2023-02-04T00:57:27;103339.87;;;6.30;53.70
55687;BME280;41911;52.362;4.978;2023-02-04T00:57:58;103336.39;;;6.10;53.87
55687;BME280;41911;52.362;4.978;2023-02-04T00:58:29;103337.36;;;6.21;54.33
55687;BME280;41911;52.362;4.978;2023-02-04T00:59:00;103340.53;;;6.06;54.65
55687;BME280;41911;52.362;4.978;2023-02-04T00:59:31;103338.57;;;5.79;54.17
55687;BME280;41911;52.362;4.978;2023-02-04T01:00:02;103341.66;;;6.14;54.03
55687;BME280;41911;52.362;4.978;2023-02-04T01:00:33;103342.04;;;6.47;53.79
55687;BME280;41911;52.362;4.978;2023-02-04T01:01:04;103344.19;;;5.81;53.82
55687;BME280;41911;52.362;4.978;2023-02-04T01:01:35;103344.25;;;6.48;54.03
55687;BME280;41911;52.362;4.978;2023-02-04T01:02:07;103346.75;;;6.60;53.83
55687;BME280;41911;52.362;4.978;2023-02-04T01:02:38;103348.21;;;6.13;54.65
55687;BME280;41911;52.362;4.978;2023-02-04T01:03:09;103344.09;;;6.28;54.50
55687;BME280;41911;52.362;4.978;2023-02-04T01:03:40;103345.83;;;6.47;54.15
55687;BME280;41911;52.362;4.978;2023-02-04T01:04:11;103346.61;;;6.57;53.98
55687;BME280;41911;52.362;4.978;2023-02-04T01:04:42;103345.17;;;6.69;53.84
55687;BME280;41911;52.362;4.978;2023-02-04T01:05:13;103345.24;;;6.82;53.50
55687;BME280;41911;52.362;4.978;2023-02-04T01:05:44;103348.29;;;6.67;53.69
55687;BME280;41911;52.362;4.978;2023-02-04T01:06:15;103345.14;;;6.28;54.34
55687;BME280;41911;52.362;4.978;2023-02-04T01:06:46;103343.58;;;5.98;54.85
55687;BME280;41911;52.362;4.978;2023-02-04T01:07:17;103345.74;;;5.86;55.33
55687;BME280;41911;52.362;4.978;2023-02-04T01:07:48;103346.54;;;5.85;55.23
55687;BME280;41911;52.362;4.978;2023-02-04T01:08:19;103348.36;;;5.36;56.18
55687;BME280;41911;52.362;4.978;2023-02-04T01:08:50;103348.99;;;5.06;56.96
55687;BME280;41911;52.362;4.978;2023-02-04T01:09:22;103352.07;;;5.51;56.66
55687;BME280;41911;52.362;4.978;2023-02-04T01:09:53;103350.13;;;5.45;56.66
55687;BME280;41911;52.362;4.978;2023-02-04T01:10:24;103350.07;;;5.88;56.34
55687;BME280;41911;52.362;4.978;2023-02-04T01:10:55;103348.76;;;5.57;56.07
55687;BME280;41911;52.362;4.978;2023-02-04T01:11:26;103349.09;;;6.07;55.83
55687;BME280;41911;52.362;4.978;2023-02-04T01:11:57;103347.53;;;5.76;55.79
55687;BME280;41911;52.362;4.978;2023-02-04T01:12:28;103345.07;;;5.84;55.56
55687;BME280;41911;52.362;4.978;2023-02-04T01:12:59;103346.77;;;5.96;55.90
55687;BME280;41911;52.362;4.978;2023-02-04T01:13:31;103347.60;;;5.79;55.77
55687;BME280;41911;52.362;4.978;2023-02-04T01:14:02;103351.05;;;5.43;56.22
55687;BME280;41911;52.362;4.978;2023-02-04T01:14:33;103351.00;;;5.52;56.24
55687;BME280;41911;52.362;4.978;2023-02-04T01:15:05;103348.46;;;5.69;55.90
55687;BME280;41911;52.362;4.978;2023-02-04T01:15:36;103350.33;;;5.99;55.64
55687;BME280;41911;52.362;4.978;2023-02-04T01:16:07;103349.93;;;6.13;55.19
55687;BME280;41911;52.362;4.978;2023-02-04T01:16:38;103350.29;;;6.00;55.49
55687;BME280;41911;52.362;4.978;2023-02-04T01:17:09;103347.95;;;6.36;55.00
55687;BME280;41911;52.362;4.978;2023-02-04T01:17:40;103347.82;;;6.33;54.71
55687;BME280;41911;52.362;4.978;2023-02-04T01:18:11;103348.79;;;5.84;55.49
55687;BME280;41911;52.362;4.978;2023-02-04T01:18:42;103351.42;;;5.74;55.74
55687;BME280;41911;52.362;4.978;2023-02-04T01:19:14;103349.20;;;6.02;55.48
55687;BME280;41911;52.362;4.978;2023-02-04T01:19:45;103352.52;;;5.86;55.62
55687;BME280;41911;52.362;4.978;2023-02-04T01:20:16;103349.42;;;6.15;55.29
55687;BME280;41911;52.362;4.978;2023-02-04T01:20:47;103350.69;;;6.57;54.69
55687;BME280;41911;52.362;4.978;2023-02-04T01:21:18;103350.94;;;6.42;54.76
55687;BME280;41911;52.362;4.978;2023-02-04T01:21:49;103353.82;;;6.40;54.83
55687;BME280;41911;52.362;4.978;2023-02-04T01:22:20;103352.06;;;6.45;54.58
55687;BME280;41911;52.362;4.978;2023-02-04T01:22:51;103356.35;;;6.45;54.18
55687;BME280;41911;52.362;4.978;2023-02-04T01:23:22;103355.26;;;6.49;54.05
55687;BME280;41911;52.362;4.978;2023-02-04T01:23:53;103358.19;;;6.95;53.79
55687;BME280;41911;52.362;4.978;2023-02-04T01:24:24;103360.01;;;6.39;54.09
55687;BME280;41911;52.362;4.978;2023-02-04T01:24:55;103360.10;;;6.41;54.15
55687;BME280;41911;52.362;4.978;2023-02-04T01:25:26;103365.23;;;6.01;55.08
55687;BME280;41911;52.362;4.978;2023-02-04T01:25:57;103363.46;;;5.72;54.82
55687;BME280;41911;52.362;4.978;2023-02-04T01:26:28;103362.23;;;5.65;55.31
55687;BME280;41911;52.362;4.978;2023-02-04T01:26:59;103363.56;;;6.39;54.89
55687;BME280;41911;52.362;4.978;2023-02-04T01:27:30;103367.99;;;6.20;54.75
55687;BME280;41911;52.362;4.978;2023-02-04T01:28:01;103370.07;;;6.41;54.77
55687;BME280;41911;52.362;4.978;2023-02-04T01:28:32;103369.42;;;6.57;54.62
55687;BME280;41911;52.362;4.978;2023-02-04T01:29:03;103373.22;;;6.23;54.62
55687;BME280;41911;52.362;4.978;2023-02-04T01:29:34;103373.23;;;6.53;54.22
55687;BME280;41911;52.362;4.978;2023-02-04T01:30:06;103375.48;;;6.81;53.63
55687;BME280;41911;52.362;4.978;2023-02-04T01:30:38;103376.31;;;6.60;53.45
55687;BME280;41911;52.362;4.978;2023-02-04T01:31:08;103379.44;;;6.39;53.66
55687;BME280;41911;52.362;4.978;2023-02-04T01:31:39;103378.61;;;6.87;53.40
55687;BME280;41911;52.362;4.978;2023-02-04T01:32:10;103379.33;;;7.15;53.08
55687;BME280;41911;52.362;4.978;2023-02-04T01:32:41;103382.07;;;7.04;52.72
55687;BME280;41911;52.362;4.978;2023-02-04T01:33:12;103381.65;;;7.08;52.59
55687;BME280;41911;52.362;4.978;2023-02-04T01:33:44;103382.52;;;7.35;52.58
55687;BME280;41911;52.362;4.978;2023-02-04T01:34:15;103384.39;;;7.26;52.27
55687;BME280;41911;52.362;4.978;2023-02-04T01:34:46;103383.45;;;7.21;52.21
55687;BME280;41911;52.362;4.978;2023-02-04T01:35:17;103384.76;;;6.97;52.48
55687;BME280;41911;52.362;4.978;2023-02-04T01:35:48;103384.19;;;6.61;52.99
55687;BME280;41911;52.362;4.978;2023-02-04T01:36:19;103383.60;;;6.52;53.21
55687;BME280;41911;52.362;4.978;2023-02-04T01:36:50;103387.22;;;6.92;52.74
55687;BME280;41911;52.362;4.978;2023-02-04T01:37:21;103386.71;;;7.42;52.40
55687;BME280;41911;52.362;4.978;2023-02-04T01:37:52;103386.47;;;7.33;52.17
55687;BME280;41911;52.362;4.978;2023-02-04T01:38:23;103385.68;;;7.81;51.72
55687;BME280;41911;52.362;4.978;2023-02-04T01:38:54;103386.27;;;7.34;51.60
55687;BME280;41911;52.362;4.978;2023-02-04T01:39:25;103387.98;;;7.68;51.50
55687;BME280;41911;52.362;4.978;2023-02-04T01:39:56;103387.70;;;7.49;51.51
55687;BME280;41911;52.362;4.978;2023-02-04T01:40:27;103388.93;;;7.30;51.54
55687;BME280;41911;52.362;4.978;2023-02-04T01:40:58;103391.89;;;7.23;51.49
55687;BME280;41911;52.362;4.978;2023-02-04T01:41:29;103391.13;;;7.51;51.52
55687;BME280;41911;52.362;4.978;2023-02-04T01:42:01;103392.05;;;7.28;51.51
55687;BME280;41911;52.362;4.978;2023-02-04T01:42:32;103390.53;;;7.49;51.63
55687;BME280;41911;52.362;4.978;2023-02-04T01:43:03;103390.64;;;7.36;51.29
55687;BME280;41911;52.362;4.978;2023-02-04T01:43:34;103393.17;;;7.44;51.65
55687;BME280;41911;52.362;4.978;2023-02-04T01:44:05;103393.53;;;7.35;51.81
55687;BME280;41911;52.362;4.978;2023-02-04T01:44:37;103395.08;;;7.29;51.47
55687;BME280;41911;52.362;4.978;2023-02-04T01:45:09;103396.47;;;7.29;51.85
55687;BME280;41911;52.362;4.978;2023-02-04T01:45:40;103395.18;;;7.03;51.86
55687;BME280;41911;52.362;4.978;2023-02-04T01:46:11;103397.12;;;7.05;52.28
55687;BME280;41911;52.362;4.978;2023-02-04T01:46:42;103398.46;;;7.02;52.38
55687;BME280;41911;52.362;4.978;2023-02-04T01:47:14;103397.14;;;6.81;52.63
55687;BME280;41911;52.362;4.978;2023-02-04T01:47:45;103394.04;;;6.72;52.73
55687;BME280;41911;52.362;4.978;2023-02-04T01:48:18;103395.33;;;6.37;53.32
55687;BME280;41911;52.362;4.978;2023-02-04T01:48:50;103394.53;;;6.48;53.30
55687;BME280;41911;52.362;4.978;2023-02-04T01:49:22;103392.86;;;6.96;53.24
55687;BME280;41911;52.362;4.978;2023-02-04T01:49:53;103394.72;;;7.05;52.81
55687;BME280;41911;52.362;4.978;2023-02-04T01:50:25;103395.54;;;6.87;52.75
55687;BME280;41911;52.362;4.978;2023-02-04T01:51:02;103395.87;;;7.01;52.56
55687;BME280;41911;52.362;4.978;2023-02-04T01:51:34;103395.60;;;6.77;52.96
55687;BME280;41911;52.362;4.978;2023-02-04T01:52:05;103395.49;;;7.06;52.98
55687;BME280;41911;52.362;4.978;2023-02-04T01:52:38;103395.17;;;6.68;52.91
55687;BME280;41911;52.362;4.978;2023-02-04T01:53:09;103397.74;;;6.36;53.42
55687;BME280;41911;52.362;4.978;2023-02-04T01:53:40;103393.63;;;6.20;53.70
55687;BME280;41911;52.362;4.978;2023-02-04T01:54:13;103396.73;;;6.38;53.68
55687;BME280;41911;52.362;4.978;2023-02-04T01:54:45;103399.32;;;6.48;53.41
55687;BME280;41911;52.362;4.978;2023-02-04T01:55:18;103396.72;;;6.32;53.77
55687;BME280;41911;52.362;4.978;2023-02-04T01:55:50;103398.65;;;6.52;53.40
55687;BME280;41911;52.362;4.978;2023-02-04T01:56:22;103400.38;;;6.86;53.25
55687;BME280;41911;52.362;4.978;2023-02-04T01:56:54;103402.17;;;6.81;52.90
55687;BME280;41911;52.362;4.978;2023-02-04T01:57:25;103403.44;;;7.02;52.68
55687;BME280;41911;52.362;4.978;2023-02-04T01:57:56;103401.95;;;7.21;52.22
55687;BME280;41911;52.362;4.978;2023-02-04T01:58:29;103402.62;;;7.32;52.04
55687;BME280;41911;52.362;4.978;2023-02-04T01:59:08;103401.77;;;7.17;52.17
55687;BME280;41911;52.362;4.978;2023-02-04T01:59:42;103405.64;;;7.36;51.96
55687;BME280;41911;52.362;4.978;2023-02-04T02:00:16;103406.92;;;7.11;52.21
55687;BME280;41911;52.362;4.978;2023-02-04T02:00:47;103407.70;;;6.80;52.66
55687;BME280;41911;52.362;4.978;2023-02-04T02:01:34;103408.69;;;7.11;52.37
55687;BME280;41911;52.362;4.978;2023-02-04T02:02:37;103408.09;;;7.16;51.86
55687;BME280;41911;52.362;4.978;2023-02-04T02:03:09;103405.89;;;7.53;51.54
55687;BME280;41911;52.362;4.978;2023-02-04T02:03:40;103405.13;;;7.43;51.26
55687;BME280;41911;52.362;4.978;2023-02-04T02:04:14;103407.23;;;7.46;51.54
55687;BME280;41911;52.362;4.978;2023-02-04T02:04:45;103407.61;;;7.13;51.99
55687;BME280;41911;52.362;4.978;2023-02-04T02:05:18;103407.60;;;6.70;52.46
55687;BME280;41911;52.362;4.978;2023-02-04T02:05:52;103408.14;;;7.00;52.50
55687;BME280;41911;52.362;4.978;2023-02-04T02:06:23;103409.23;;;6.81;52.40
55687;BME280;41911;52.362;4.978;2023-02-04T02:06:59;103407.71;;;6.59;53.02
55687;BME280;41911;52.362;4.978;2023-02-04T02:07:32;103408.80;;;6.26;53.86
55687;BME280;41911;52.362;4.978;2023-02-04T02:08:04;103408.74;;;6.45;53.49
55687;BME280;41911;52.362;4.978;2023-02-04T02:08:37;103410.27;;;6.75;53.11
55687;BME280;41911;52.362;4.978;2023-02-04T02:09:08;103412.39;;;6.92;52.92
55687;BME280;41911;52.362;4.978;2023-02-04T02:09:39;103413.60;;;6.92;52.75
55687;BME280;41911;52.362;4.978;2023-02-04T02:10:12;103412.38;;;6.96;52.77
55687;BME280;41911;52.362;4.978;2023-02-04T02:10:45;103411.38;;;6.83;52.95
55687;BME280;41911;52.362;4.978;2023-02-04T02:11:17;103412.03;;;6.66;53.18
55687;BME280;41911;52.362;4.978;2023-02-04T02:11:48;103414.31;;;6.90;52.88
55687;BME280;41911;52.362;4.978;2023-02-04T02:12:19;103415.75;;;6.89;52.45
55687;BME280;41911;52.362;4.978;2023-02-04T02:12:51;103416.27;;;7.38;52.11
55687;BME280;41911;52.362;4.978;2023-02-04T02:13:23;103417.60;;;7.32;52.33
55687;BME280;41911;52.362;4.978;2023-02-04T02:13:54;103418.96;;;6.99;52.51
55687;BME280;41911;52.362;4.978;2023-02-04T02:14:25;103415.72;;;6.32;53.69
55687;BME280;41911;52.362;4.978;2023-02-04T02:14:56;103418.87;;;5.86;54.47
55687;BME280;41911;52.362;4.978;2023-02-04T02:15:28;103418.64;;;6.38;54.29
55687;BME280;41911;52.362;4.978;2023-02-04T02:15:59;103420.71;;;5.90;54.67
55687;BME280;41911;52.362;4.978;2023-02-04T02:16:30;103418.66;;;6.07;54.47
55687;BME280;41911;52.362;4.978;2023-02-04T02:17:01;103418.68;;;6.20;54.38
55687;BME280;41911;52.362;4.978;2023-02-04T02:17:32;103422.36;;;6.19;54.27
55687;BME280;41911;52.362;4.978;2023-02-04T02:18:03;103419.37;;;6.97;54.01
55687;BME280;41911;52.362;4.978;2023-02-04T02:18:34;103418.69;;;6.83;53.70
55687;BME280;41911;52.362;4.978;2023-02-04T02:19:06;103422.49;;;6.69;53.46
55687;BME280;41911;52.362;4.978;2023-02-04T02:19:40;103420.63;;;6.54;53.55
55687;BME280;41911;52.362;4.978;2023-02-04T02:20:14;103419.02;;;7.15;53.81
55687;BME280;41911;52.362;4.978;2023-02-04T02:20:45;103421.87;;;7.35;53.38
55687;BME280;41911;52.362;4.978;2023-02-04T02:21:23;103421.06;;;6.98;53.13
55687;BME280;41911;52.362;4.978;2023-02-04T02:22:02;103417.94;;;6.55;53.47
55687;BME280;41911;52.362;4.978;2023-02-04T02:22:40;103418.55;;;6.52;53.94
55687;BME280;41911;52.362;4.978;2023-02-04T02:23:17;103418.11;;;6.94;53.24
55687;BME280;41911;52.362;4.978;2023-02-04T02:23:50;103415.09;;;7.26;52.73
55687;BME280;41911;52.362;4.978;2023-02-04T02:24:26;103418.14;;;7.28;52.50
55687;BME280;41911;52.362;4.978;2023-02-04T02:24:57;103416.42;;;7.42;52.25
55687;BME280;41911;52.362;4.978;2023-02-04T02:25:28;103414.48;;;7.09;52.62
55687;BME280;41911;52.362;4.978;2023-02-04T02:26:01;103416.53;;;7.06;52.69
55687;BME280;41911;52.362;4.978;2023-02-04T02:26:32;103412.91;;;7.12;52.71
55687;BME280;41911;52.362;4.978;2023-02-04T02:27:08;103415.89;;;6.89;52.96
55687;BME280;41911;52.362;4.978;2023-02-04T02:27:39;103413.26;;;7.06;52.81
55687;BME280;41911;52.362;4.978;2023-02-04T02:28:13;103411.97;;;7.25;52.54
55687;BME280;41911;52.362;4.978;2023-02-04T02:28:45;103412.74;;;7.38;52.26
55687;BME280;41911;52.362;4.978;2023-02-04T02:29:16;103413.43;;;7.32;52.33
55687;BME280;41911;52.362;4.978;2023-02-04T02:29:47;103413.88;;;7.11;52.55
55687;BME280;41911;52.362;4.978;2023-02-04T02:30:20;103417.02;;;7.19;52.48
55687;BME280;41911;52.362;4.978;2023-02-04T02:30:52;103417.06;;;7.05;52.74
55687;BME280;41911;52.362;4.978;2023-02-04T02:31:23;103418.28;;;6.94;52.82
55687;BME280;41911;52.362;4.978;2023-02-04T02:31:55;103418.19;;;7.09;52.73
55687;BME280;41911;52.362;4.978;2023-02-04T02:32:27;103421.79;;;7.17;52.19
55687;BME280;41911;52.362;4.978;2023-02-04T02:32:58;103420.87;;;7.29;52.37
55687;BME280;41911;52.362;4.978;2023-02-04T02:33:29;103419.43;;;7.07;52.17
55687;BME280;41911;52.362;4.978;2023-02-04T02:34:00;103419.19;;;7.12;52.04
55687;BME280;41911;52.362;4.978;2023-02-04T02:34:31;103418.33;;;7.57;51.96
55687;BME280;41911;52.362;4.978;2023-02-04T02:35:04;103419.97;;;7.44;51.97
55687;BME280;41911;52.362;4.978;2023-02-04T02:35:35;103421.25;;;6.90;52.29
55687;BME280;41911;52.362;4.978;2023-02-04T02:36:07;103424.50;;;7.37;52.28
55687;BME280;41911;52.362;4.978;2023-02-04T02:36:38;103421.78;;;7.31;51.80
55687;BME280;41911;52.362;4.978;2023-02-04T02:37:09;103422.09;;;7.80;51.62
55687;BME280;41911;52.362;4.978;2023-02-04T02:37:40;103423.18;;;7.77;51.51
55687;BME280;41911;52.362;4.978;2023-02-04T02:38:11;103422.34;;;7.95;51.42
55687;BME280;41911;52.362;4.978;2023-02-04T02:38:42;103422.91;;;8.06;51.26
55687;BME280;41911;52.362;4.978;2023-02-04T02:39:14;103422.80;;;7.89;51.00
55687;BME280;41911;52.362;4.978;2023-02-04T02:39:45;103421.22;;;8.30;50.89
55687;BME280;41911;52.362;4.978;2023-02-04T02:40:17;103420.25;;;7.66;50.72
55687;BME280;41911;52.362;4.978;2023-02-04T02:40:49;103422.02;;;8.29;50.66
55687;BME280;41911;52.362;4.978;2023-02-04T02:41:20;103422.22;;;7.88;50.50
55687;BME280;41911;52.362;4.978;2023-02-04T02:41:51;103423.80;;;8.00;50.07
55687;BME280;41911;52.362;4.978;2023-02-04T02:42:22;103420.43;;;8.30;50.01
55687;BME280;41911;52.362;4.978;2023-02-04T02:42:53;103418.32;;;8.38;49.95
55687;BME280;41911;52.362;4.978;2023-02-04T02:43:26;103419.67;;;8.09;49.94
55687;BME280;41911;52.362;4.978;2023-02-04T02:43:58;103422.29;;;8.23;49.77
55687;BME280;41911;52.362;4.978;2023-02-04T02:44:29;103421.77;;;8.34;49.26
55687;BME280;41911;52.362;4.978;2023-02-04T02:45:03;103424.97;;;8.04;49.70
55687;BME280;41911;52.362;4.978;2023-02-04T02:45:36;103425.72;;;8.07;49.83
55687;BME280;41911;52.362;4.978;2023-02-04T02:46:07;103427.68;;;8.34;49.68
55687;BME280;41911;52.362;4.978;2023-02-04T02:46:38;103427.86;;;7.91;49.87
55687;BME280;41911;52.362;4.978;2023-02-04T02:47:12;103427.83;;;8.06;49.75
55687;BME280;41911;52.362;4.978;2023-02-04T02:47:44;103429.52;;;7.90;49.76
55687;BME280;41911;52.362;4.978;2023-02-04T02:48:16;103428.92;;;8.06;49.72
55687;BME280;41911;52.362;4.978;2023-02-04T02:48:47;103429.96;;;8.13;49.53